sensor_id;sensor_type;location;lat;lon;timestamp;P1;durP1;ratioP1;P2;durP2;ratioP2
10154;SDS011;5118;48.570;7.916;2023-06-26T00:00:02;10.30;;;8.77;;
10154;SDS011;5118;48.570;7.916;2023-06-26T00:02:33;9.23;;;8.30;;
10154;SDS011;5118;48.570;7.916;2023-06-26T00:05:01;9.33;;;8.43;;
10154;SDS011;5118;48.570;7.916;2023-06-26T00:07:31;10.70;;;8.90;;
10154;SDS011;5118;48.570;7.916;2023-06-26T00:10:01;9.07;;;8.27;;
10154;SDS011;5118;48.570;7.916;2023-06-26T00:12:30;9.20;;;8.33;;
10154;SDS011;5118;48.570;7.916;2023-06-26T00:14:59;8.93;;;8.13;;
10154;SDS011;5118;48.570;7.916;2023-06-26T00:17:29;9.67;;;8.60;;
10154;SDS011;5118;48.570;7.916;2023-06-26T00:20:04;9.40;;;8.60;;
10154;SDS011;5118;48.570;7.916;2023-06-26T00:22:38;9.73;;;8.73;;
10154;SDS011;5118;48.570;7.916;2023-06-26T00:25:07;9.60;;;8.60;;
10154;SDS011;5118;48.570;7.916;2023-06-26T00:27:36;13.57;;;9.17;;
10154;SDS011;5118;48.570;7.916;2023-06-26T00:30:04;11.87;;;9.03;;
10154;SDS011;5118;48.570;7.916;2023-06-26T00:32:34;9.90;;;9.00;;
10154;SDS011;5118;48.570;7.916;2023-06-26T00:35:06;10.23;;;9.23;;
10154;SDS011;5118;48.570;7.916;2023-06-26T00:37:35;9.97;;;9.07;;
10154;SDS011;5118;48.570;7.916;2023-06-26T00:40:04;9.70;;;8.70;;
10154;SDS011;5118;48.570;7.916;2023-06-26T00:42:33;10.73;;;9.63;;
10154;SDS011;5118;48.570;7.916;2023-06-26T00:45:03;12.37;;;9.33;;
10154;SDS011;5118;48.570;7.916;2023-06-26T00:47:32;10.40;;;9.27;;
10154;SDS011;5118;48.570;7.916;2023-06-26T00:50:01;10.57;;;9.30;;
10154;SDS011;5118;48.570;7.916;2023-06-26T00:52:31;10.93;;;9.43;;
10154;SDS011;5118;48.570;7.916;2023-06-26T00:54:59;10.57;;;9.30;;
10154;SDS011;5118;48.570;7.916;2023-06-26T00:57:29;9.20;;;8.30;;
10154;SDS011;5118;48.570;7.916;2023-06-26T00:59:59;10.00;;;8.87;;
10154;SDS011;5118;48.570;7.916;2023-06-26T01:02:30;10.47;;;9.47;;
10154;SDS011;5118;48.570;7.916;2023-06-26T01:05:00;9.90;;;8.90;;
10154;SDS011;5118;48.570;7.916;2023-06-26T01:07:36;12.77;;;9.20;;
10154;SDS011;5118;48.570;7.916;2023-06-26T01:10:06;9.80;;;8.90;;
10154;SDS011;5118;48.570;7.916;2023-06-26T01:12:36;9.63;;;8.70;;
10154;SDS011;5118;48.570;7.916;2023-06-26T01:15:06;10.50;;;9.33;;
10154;SDS011;5118;48.570;7.916;2023-06-26T01:17:36;10.40;;;9.00;;
10154;SDS011;5118;48.570;7.916;2023-06-26T01:20:05;10.23;;;9.13;;
10154;SDS011;5118;48.570;7.916;2023-06-26T01:22:37;9.37;;;8.57;;
10154;SDS011;5118;48.570;7.916;2023-06-26T01:25:15;10.40;;;9.27;;
10154;SDS011;5118;48.570;7.916;2023-06-26T01:27:55;10.00;;;9.00;;
10154;SDS011;5118;48.570;7.916;2023-06-26T01:30:25;11.03;;;9.90;;
10154;SDS011;5118;48.570;7.916;2023-06-26T01:32:54;10.77;;;8.80;;
10154;SDS011;5118;48.570;7.916;2023-06-26T01:35:23;10.23;;;9.33;;
10154;SDS011;5118;48.570;7.916;2023-06-26T01:37:52;10.00;;;9.07;;
10154;SDS011;5118;48.570;7.916;2023-06-26T01:40:21;11.67;;;9.13;;
10154;SDS011;5118;48.570;7.916;2023-06-26T01:42:49;10.70;;;9.73;;
10154;SDS011;5118;48.570;7.916;2023-06-26T01:45:20;10.17;;;9.17;;
10154;SDS011;5118;48.570;7.916;2023-06-26T01:47:54;10.47;;;9.57;;
10154;SDS011;5118;48.570;7.916;2023-06-26T01:50:28;10.60;;;9.57;;
10154;SDS011;5118;48.570;7.916;2023-06-26T01:53:02;10.03;;;9.03;;
10154;SDS011;5118;48.570;7.916;2023-06-26T01:55:34;10.13;;;9.10;;
10154;SDS011;5118;48.570;7.916;2023-06-26T01:58:07;10.03;;;9.13;;
10154;SDS011;5118;48.570;7.916;2023-06-26T02:00:37;10.73;;;9.73;;
10154;SDS011;5118;48.570;7.916;2023-06-26T02:03:06;10.53;;;9.43;;
10154;SDS011;5118;48.570;7.916;2023-06-26T02:05:38;10.20;;;9.10;;
10154;SDS011;5118;48.570;7.916;2023-06-26T02:08:08;10.63;;;9.63;;
10154;SDS011;5118;48.570;7.916;2023-06-26T02:10:37;10.57;;;9.47;;
10154;SDS011;5118;48.570;7.916;2023-06-26T02:13:06;10.40;;;9.40;;
10154;SDS011;5118;48.570;7.916;2023-06-26T02:15:34;10.80;;;9.70;;
10154;SDS011;5118;48.570;7.916;2023-06-26T02:18:04;10.50;;;9.50;;
10154;SDS011;5118;48.570;7.916;2023-06-26T02:20:33;10.03;;;9.03;;
10154;SDS011;5118;48.570;7.916;2023-06-26T02:23:01;10.37;;;9.43;;
10154;SDS011;5118;48.570;7.916;2023-06-26T02:25:29;11.90;;;9.00;;
10154;SDS011;5118;48.570;7.916;2023-06-26T02:27:58;10.23;;;9.20;;
10154;SDS011;5118;48.570;7.916;2023-06-26T02:30:26;10.40;;;9.10;;
10154;SDS011;5118;48.570;7.916;2023-06-26T02:32:54;9.97;;;9.00;;
10154;SDS011;5118;48.570;7.916;2023-06-26T02:35:24;10.50;;;9.13;;
10154;SDS011;5118;48.570;7.916;2023-06-26T02:37:52;9.93;;;8.93;;
10154;SDS011;5118;48.570;7.916;2023-06-26T02:40:21;10.73;;;9.27;;
10154;SDS011;5118;48.570;7.916;2023-06-26T02:42:51;10.30;;;9.20;;
10154;SDS011;5118;48.570;7.916;2023-06-26T02:45:20;9.87;;;8.90;;
10154;SDS011;5118;48.570;7.916;2023-06-26T02:47:48;10.17;;;9.17;;
10154;SDS011;5118;48.570;7.916;2023-06-26T02:50:17;11.17;;;9.33;;
10154;SDS011;5118;48.570;7.916;2023-06-26T02:53:04;9.70;;;8.70;;
10154;SDS011;5118;48.570;7.916;2023-06-26T02:55:33;9.47;;;8.23;;
10154;SDS011;5118;48.570;7.916;2023-06-26T02:58:02;9.97;;;8.97;;
10154;SDS011;5118;48.570;7.916;2023-06-26T03:00:32;9.33;;;8.50;;
10154;SDS011;5118;48.570;7.916;2023-06-26T03:03:03;10.23;;;8.97;;
10154;SDS011;5118;48.570;7.916;2023-06-26T03:05:31;13.30;;;8.50;;
10154;SDS011;5118;48.570;7.916;2023-06-26T03:08:00;13.13;;;9.20;;
10154;SDS011;5118;48.570;7.916;2023-06-26T03:10:31;11.50;;;9.17;;
10154;SDS011;5118;48.570;7.916;2023-06-26T03:13:00;11.13;;;8.70;;
10154;SDS011;5118;48.570;7.916;2023-06-26T03:15:28;9.67;;;8.67;;
10154;SDS011;5118;48.570;7.916;2023-06-26T03:17:56;10.57;;;8.87;;
10154;SDS011;5118;48.570;7.916;2023-06-26T03:20:27;9.83;;;8.83;;
10154;SDS011;5118;48.570;7.916;2023-06-26T03:22:57;10.97;;;9.17;;
10154;SDS011;5118;48.570;7.916;2023-06-26T03:25:25;11.63;;;8.47;;
10154;SDS011;5118;48.570;7.916;2023-06-26T03:28:15;10.77;;;8.87;;
10154;SDS011;5118;48.570;7.916;2023-06-26T03:30:43;12.53;;;9.30;;
10154;SDS011;5118;48.570;7.916;2023-06-26T03:33:12;12.87;;;9.37;;
10154;SDS011;5118;48.570;7.916;2023-06-26T03:35:40;9.80;;;8.80;;
10154;SDS011;5118;48.570;7.916;2023-06-26T03:38:11;9.70;;;8.77;;
10154;SDS011;5118;48.570;7.916;2023-06-26T03:40:41;9.93;;;9.00;;
10154;SDS011;5118;48.570;7.916;2023-06-26T03:43:10;9.43;;;8.20;;
10154;SDS011;5118;48.570;7.916;2023-06-26T03:46:02;9.40;;;8.50;;
10154;SDS011;5118;48.570;7.916;2023-06-26T03:48:30;9.37;;;8.47;;
10154;SDS011;5118;48.570;7.916;2023-06-26T03:50:59;9.80;;;8.90;;
10154;SDS011;5118;48.570;7.916;2023-06-26T03:53:29;9.63;;;8.73;;
10154;SDS011;5118;48.570;7.916;2023-06-26T03:55:58;9.50;;;8.60;;
10154;SDS011;5118;48.570;7.916;2023-06-26T03:58:26;9.73;;;8.83;;
10154;SDS011;5118;48.570;7.916;2023-06-26T04:00:55;9.30;;;8.30;;
10154;SDS011;5118;48.570;7.916;2023-06-26T04:03:25;10.33;;;8.53;;
10154;SDS011;5118;48.570;7.916;2023-06-26T04:05:53;9.00;;;8.20;;
10154;SDS011;5118;48.570;7.916;2023-06-26T04:08:23;11.00;;;8.40;;
10154;SDS011;5118;48.570;7.916;2023-06-26T04:10:53;8.77;;;8.03;;
10154;SDS011;5118;48.570;7.916;2023-06-26T04:13:24;10.53;;;8.20;;
10154;SDS011;5118;48.570;7.916;2023-06-26T04:15:52;9.60;;;8.30;;
10154;SDS011;5118;48.570;7.916;2023-06-26T04:18:20;9.10;;;8.20;;
10154;SDS011;5118;48.570;7.916;2023-06-26T04:21:06;8.90;;;8.10;;
10154;SDS011;5118;48.570;7.916;2023-06-26T04:23:36;10.70;;;8.20;;
10154;SDS011;5118;48.570;7.916;2023-06-26T04:26:04;11.83;;;8.80;;
10154;SDS011;5118;48.570;7.916;2023-06-26T04:28:33;9.97;;;8.03;;
10154;SDS011;5118;48.570;7.916;2023-06-26T04:31:02;8.83;;;8.03;;
10154;SDS011;5118;48.570;7.916;2023-06-26T04:33:30;8.60;;;7.80;;
10154;SDS011;5118;48.570;7.916;2023-06-26T04:35:59;9.70;;;8.40;;
10154;SDS011;5118;48.570;7.916;2023-06-26T04:38:31;9.20;;;8.30;;
10154;SDS011;5118;48.570;7.916;2023-06-26T04:41:00;8.97;;;8.17;;
10154;SDS011;5118;48.570;7.916;2023-06-26T04:43:29;9.00;;;8.10;;
10154;SDS011;5118;48.570;7.916;2023-06-26T04:45:57;9.47;;;8.57;;
10154;SDS011;5118;48.570;7.916;2023-06-26T04:48:25;8.80;;;8.00;;
10154;SDS011;5118;48.570;7.916;2023-06-26T04:50:55;8.90;;;8.10;;
10154;SDS011;5118;48.570;7.916;2023-06-26T04:53:25;8.47;;;7.73;;
10154;SDS011;5118;48.570;7.916;2023-06-26T04:55:55;9.00;;;8.20;;
10154;SDS011;5118;48.570;7.916;2023-06-26T04:58:23;9.13;;;7.87;;
10154;SDS011;5118;48.570;7.916;2023-06-26T05:00:51;8.97;;;8.20;;
10154;SDS011;5118;48.570;7.916;2023-06-26T05:03:21;8.90;;;8.10;;
10154;SDS011;5118;48.570;7.916;2023-06-26T05:05:50;9.47;;;8.27;;
10154;SDS011;5118;48.570;7.916;2023-06-26T05:08:21;8.80;;;8.00;;
10154;SDS011;5118;48.570;7.916;2023-06-26T05:10:50;8.63;;;7.83;;
10154;SDS011;5118;48.570;7.916;2023-06-26T05:13:21;10.00;;;7.83;;
10154;SDS011;5118;48.570;7.916;2023-06-26T05:15:49;9.73;;;7.70;;
10154;SDS011;5118;48.570;7.916;2023-06-26T05:18:18;8.52;;;7.72;;
10154;SDS011;5118;48.570;7.916;2023-06-26T05:20:46;8.75;;;7.85;;
10154;SDS011;5118;48.570;7.916;2023-06-26T05:23:15;8.50;;;7.70;;
10154;SDS011;5118;48.570;7.916;2023-06-26T05:25:44;8.23;;;7.53;;
10154;SDS011;5118;48.570;7.916;2023-06-26T05:28:13;8.30;;;7.57;;
10154;SDS011;5118;48.570;7.916;2023-06-26T05:30:43;8.80;;;8.03;;
10154;SDS011;5118;48.570;7.916;2023-06-26T05:33:13;8.90;;;8.00;;
10154;SDS011;5118;48.570;7.916;2023-06-26T05:35:45;8.52;;;7.75;;
10154;SDS011;5118;48.570;7.916;2023-06-26T05:38:15;8.43;;;7.63;;
10154;SDS011;5118;48.570;7.916;2023-06-26T05:40:43;8.43;;;7.72;;
10154;SDS011;5118;48.570;7.916;2023-06-26T05:43:12;8.68;;;7.78;;
10154;SDS011;5118;48.570;7.916;2023-06-26T05:45:41;8.88;;;7.88;;
10154;SDS011;5118;48.570;7.916;2023-06-26T05:48:10;9.23;;;8.30;;
10154;SDS011;5118;48.570;7.916;2023-06-26T05:50:39;8.93;;;7.70;;
10154;SDS011;5118;48.570;7.916;2023-06-26T05:53:08;8.68;;;7.88;;
10154;SDS011;5118;48.570;7.916;2023-06-26T05:55:37;9.77;;;8.13;;
10154;SDS011;5118;48.570;7.916;2023-06-26T05:58:08;8.57;;;7.88;;
10154;SDS011;5118;48.570;7.916;2023-06-26T06:00:38;11.57;;;8.63;;
10154;SDS011;5118;48.570;7.916;2023-06-26T06:03:09;9.40;;;8.38;;
10154;SDS011;5118;48.570;7.916;2023-06-26T06:05:39;8.73;;;7.82;;
10154;SDS011;5118;48.570;7.916;2023-06-26T06:08:07;9.23;;;8.00;;
10154;SDS011;5118;48.570;7.916;2023-06-26T06:10:36;11.80;;;7.50;;
10154;SDS011;5118;48.570;7.916;2023-06-26T06:13:04;10.65;;;7.82;;
10154;SDS011;5118;48.570;7.916;2023-06-26T06:15:33;8.10;;;7.30;;
10154;SDS011;5118;48.570;7.916;2023-06-26T06:18:01;10.13;;;8.00;;
10154;SDS011;5118;48.570;7.916;2023-06-26T06:20:31;10.25;;;8.02;;
10154;SDS011;5118;48.570;7.916;2023-06-26T06:22:59;8.27;;;7.07;;
10154;SDS011;5118;48.570;7.916;2023-06-26T06:25:28;8.18;;;7.38;;
10154;SDS011;5118;48.570;7.916;2023-06-26T06:27:56;10.13;;;7.63;;
10154;SDS011;5118;48.570;7.916;2023-06-26T06:30:25;8.80;;;7.70;;
10154;SDS011;5118;48.570;7.916;2023-06-26T06:33:10;8.88;;;7.63;;
10154;SDS011;5118;48.570;7.916;2023-06-26T06:35:40;8.75;;;7.38;;
10154;SDS011;5118;48.570;7.916;2023-06-26T06:38:08;10.77;;;7.57;;
10154;SDS011;5118;48.570;7.916;2023-06-26T06:40:37;9.75;;;7.53;;
10154;SDS011;5118;48.570;7.916;2023-06-26T06:43:06;7.97;;;7.28;;
10154;SDS011;5118;48.570;7.916;2023-06-26T06:45:34;8.07;;;7.38;;
10154;SDS011;5118;48.570;7.916;2023-06-26T06:48:04;8.13;;;7.47;;
10154;SDS011;5118;48.570;7.916;2023-06-26T06:50:33;8.35;;;7.53;;
10154;SDS011;5118;48.570;7.916;2023-06-26T06:53:03;8.60;;;7.55;;
10154;SDS011;5118;48.570;7.916;2023-06-26T06:55:31;8.52;;;7.35;;
10154;SDS011;5118;48.570;7.916;2023-06-26T06:58:00;8.05;;;7.35;;
10154;SDS011;5118;48.570;7.916;2023-06-26T07:00:31;8.35;;;7.60;;
10154;SDS011;5118;48.570;7.916;2023-06-26T07:03:00;10.68;;;7.18;;
10154;SDS011;5118;48.570;7.916;2023-06-26T07:05:28;8.00;;;7.30;;
10154;SDS011;5118;48.570;7.916;2023-06-26T07:07:56;7.47;;;6.78;;
10154;SDS011;5118;48.570;7.916;2023-06-26T07:10:29;7.55;;;6.85;;
10154;SDS011;5118;48.570;7.916;2023-06-26T07:12:58;7.63;;;6.80;;
10154;SDS011;5118;48.570;7.916;2023-06-26T07:15:27;7.63;;;6.93;;
10154;SDS011;5118;48.570;7.916;2023-06-26T07:17:55;8.32;;;7.25;;
10154;SDS011;5118;48.570;7.916;2023-06-26T07:20:24;7.70;;;7.00;;
10154;SDS011;5118;48.570;7.916;2023-06-26T07:22:52;7.47;;;6.75;;
10154;SDS011;5118;48.570;7.916;2023-06-26T07:25:21;7.90;;;7.25;;
10154;SDS011;5118;48.570;7.916;2023-06-26T07:27:51;7.35;;;6.65;;
10154;SDS011;5118;48.570;7.916;2023-06-26T07:30:19;8.73;;;7.10;;
10154;SDS011;5118;48.570;7.916;2023-06-26T07:32:47;7.65;;;6.95;;
10154;SDS011;5118;48.570;7.916;2023-06-26T07:35:16;7.25;;;6.65;;
10154;SDS011;5118;48.570;7.916;2023-06-26T07:37:45;8.18;;;6.78;;
10154;SDS011;5118;48.570;7.916;2023-06-26T07:40:13;7.53;;;6.70;;
10154;SDS011;5118;48.570;7.916;2023-06-26T07:42:44;11.60;;;6.65;;
10154;SDS011;5118;48.570;7.916;2023-06-26T07:45:15;7.70;;;7.10;;
10154;SDS011;5118;48.570;7.916;2023-06-26T07:47:44;7.50;;;6.80;;
10154;SDS011;5118;48.570;7.916;2023-06-26T07:50:12;8.30;;;7.03;;
10154;SDS011;5118;48.570;7.916;2023-06-26T07:52:45;7.93;;;7.07;;
10154;SDS011;5118;48.570;7.916;2023-06-26T07:55:14;10.77;;;7.68;;
10154;SDS011;5118;48.570;7.916;2023-06-26T07:57:43;8.05;;;7.35;;
10154;SDS011;5118;48.570;7.916;2023-06-26T08:00:12;7.70;;;7.00;;
10154;SDS011;5118;48.570;7.916;2023-06-26T08:02:43;7.75;;;7.03;;
10154;SDS011;5118;48.570;7.916;2023-06-26T08:05:11;11.65;;;7.00;;
10154;SDS011;5118;48.570;7.916;2023-06-26T08:07:40;11.23;;;7.35;;
10154;SDS011;5118;48.570;7.916;2023-06-26T08:10:09;8.07;;;7.28;;
10154;SDS011;5118;48.570;7.916;2023-06-26T08:12:37;8.60;;;7.82;;
10154;SDS011;5118;48.570;7.916;2023-06-26T08:15:09;10.23;;;8.60;;
10154;SDS011;5118;48.570;7.916;2023-06-26T08:17:37;9.82;;;8.27;;
10154;SDS011;5118;48.570;7.916;2023-06-26T08:20:08;11.30;;;8.00;;
10154;SDS011;5118;48.570;7.916;2023-06-26T08:22:37;9.32;;;7.88;;
10154;SDS011;5118;48.570;7.916;2023-06-26T08:25:06;7.60;;;6.90;;
10154;SDS011;5118;48.570;7.916;2023-06-26T08:27:34;9.07;;;7.82;;
10154;SDS011;5118;48.570;7.916;2023-06-26T08:30:03;7.63;;;6.90;;
10154;SDS011;5118;48.570;7.916;2023-06-26T08:32:32;8.07;;;6.60;;
10154;SDS011;5118;48.570;7.916;2023-06-26T08:35:00;7.90;;;6.60;;
10154;SDS011;5118;48.570;7.916;2023-06-26T08:37:30;8.10;;;7.40;;
10154;SDS011;5118;48.570;7.916;2023-06-26T08:39:59;9.40;;;7.38;;
10154;SDS011;5118;48.570;7.916;2023-06-26T08:42:28;7.57;;;6.88;;
10154;SDS011;5118;48.570;7.916;2023-06-26T08:44:56;7.78;;;6.95;;
10154;SDS011;5118;48.570;7.916;2023-06-26T08:47:30;8.32;;;7.50;;
10154;SDS011;5118;48.570;7.916;2023-06-26T08:50:05;7.75;;;7.13;;
10154;SDS011;5118;48.570;7.916;2023-06-26T08:52:40;8.02;;;6.57;;
10154;SDS011;5118;48.570;7.916;2023-06-26T08:55:11;8.18;;;6.10;;
10154;SDS011;5118;48.570;7.916;2023-06-26T08:57:42;6.82;;;6.22;;
10154;SDS011;5118;48.570;7.916;2023-06-26T09:00:14;6.85;;;6.13;;
10154;SDS011;5118;48.570;7.916;2023-06-26T09:02:43;7.00;;;6.50;;
10154;SDS011;5118;48.570;7.916;2023-06-26T09:05:12;7.60;;;5.85;;
10154;SDS011;5118;48.570;7.916;2023-06-26T09:07:42;7.43;;;6.47;;
10154;SDS011;5118;48.570;7.916;2023-06-26T09:10:11;6.90;;;6.25;;
10154;SDS011;5118;48.570;7.916;2023-06-26T09:12:40;6.90;;;6.40;;
10154;SDS011;5118;48.570;7.916;2023-06-26T09:15:08;7.32;;;6.05;;
10154;SDS011;5118;48.570;7.916;2023-06-26T09:17:38;8.65;;;6.30;;
10154;SDS011;5118;48.570;7.916;2023-06-26T09:20:08;6.82;;;5.65;;
10154;SDS011;5118;48.570;7.916;2023-06-26T09:22:40;9.43;;;6.20;;
10154;SDS011;5118;48.570;7.916;2023-06-26T09:25:10;6.38;;;5.78;;
10154;SDS011;5118;48.570;7.916;2023-06-26T09:27:39;6.15;;;5.63;;
10154;SDS011;5118;48.570;7.916;2023-06-26T09:30:07;6.18;;;5.57;;
10154;SDS011;5118;48.570;7.916;2023-06-26T09:32:36;5.93;;;5.28;;
10154;SDS011;5118;48.570;7.916;2023-06-26T09:35:05;8.68;;;5.30;;
10154;SDS011;5118;48.570;7.916;2023-06-26T09:37:34;6.20;;;5.38;;
10154;SDS011;5118;48.570;7.916;2023-06-26T09:40:02;6.63;;;5.20;;
10154;SDS011;5118;48.570;7.916;2023-06-26T09:42:35;6.35;;;5.60;;
10154;SDS011;5118;48.570;7.916;2023-06-26T09:45:05;6.00;;;5.40;;
10154;SDS011;5118;48.570;7.916;2023-06-26T09:47:34;7.00;;;5.50;;
10154;SDS011;5118;48.570;7.916;2023-06-26T09:50:03;7.68;;;5.60;;
10154;SDS011;5118;48.570;7.916;2023-06-26T09:52:32;6.18;;;5.57;;
10154;SDS011;5118;48.570;7.916;2023-06-26T09:55:08;7.03;;;5.47;;
10154;SDS011;5118;48.570;7.916;2023-06-26T09:57:39;6.32;;;5.70;;
10154;SDS011;5118;48.570;7.916;2023-06-26T10:00:08;7.22;;;5.72;;
10154;SDS011;5118;48.570;7.916;2023-06-26T10:02:38;6.75;;;6.10;;
10154;SDS011;5118;48.570;7.916;2023-06-26T10:05:07;6.80;;;6.03;;
10154;SDS011;5118;48.570;7.916;2023-06-26T10:07:36;6.82;;;5.95;;
10154;SDS011;5118;48.570;7.916;2023-06-26T10:10:06;8.10;;;5.40;;
10154;SDS011;5118;48.570;7.916;2023-06-26T10:12:36;12.18;;;7.63;;
10154;SDS011;5118;48.570;7.916;2023-06-26T10:15:06;6.28;;;5.60;;
10154;SDS011;5118;48.570;7.916;2023-06-26T10:17:39;5.25;;;4.78;;
10154;SDS011;5118;48.570;7.916;2023-06-26T10:20:11;6.45;;;5.45;;
10154;SDS011;5118;48.570;7.916;2023-06-26T10:22:42;6.28;;;4.80;;
10154;SDS011;5118;48.570;7.916;2023-06-26T10:25:14;6.70;;;4.75;;
10154;SDS011;5118;48.570;7.916;2023-06-26T10:27:47;6.05;;;5.20;;
10154;SDS011;5118;48.570;7.916;2023-06-26T10:30:22;5.63;;;4.80;;
10154;SDS011;5118;48.570;7.916;2023-06-26T10:32:54;5.72;;;4.70;;
10154;SDS011;5118;48.570;7.916;2023-06-26T10:35:27;5.05;;;4.50;;
10154;SDS011;5118;48.570;7.916;2023-06-26T10:38:00;5.50;;;4.60;;
10154;SDS011;5118;48.570;7.916;2023-06-26T10:40:39;8.07;;;4.57;;
10154;SDS011;5118;48.570;7.916;2023-06-26T10:43:09;5.70;;;4.43;;
10154;SDS011;5118;48.570;7.916;2023-06-26T10:45:44;6.38;;;4.43;;
10154;SDS011;5118;48.570;7.916;2023-06-26T10:48:18;5.05;;;4.55;;
10154;SDS011;5118;48.570;7.916;2023-06-26T10:50:47;4.80;;;4.40;;
10154;SDS011;5118;48.570;7.916;2023-06-26T10:53:21;5.70;;;4.40;;
10154;SDS011;5118;48.570;7.916;2023-06-26T10:55:58;4.80;;;4.25;;
10154;SDS011;5118;48.570;7.916;2023-06-26T10:58:32;6.78;;;4.40;;
10154;SDS011;5118;48.570;7.916;2023-06-26T11:04:03;4.85;;;4.40;;
10154;SDS011;5118;48.570;7.916;2023-06-26T11:06:33;4.45;;;4.00;;
10154;SDS011;5118;48.570;7.916;2023-06-26T11:09:06;4.50;;;4.20;;
10154;SDS011;5118;48.570;7.916;2023-06-26T11:14:29;6.45;;;4.30;;
10154;SDS011;5118;48.570;7.916;2023-06-26T11:17:01;4.18;;;3.70;;
10154;SDS011;5118;48.570;7.916;2023-06-26T11:19:31;4.07;;;3.70;;
10154;SDS011;5118;48.570;7.916;2023-06-26T11:22:01;9.52;;;3.70;;
10154;SDS011;5118;48.570;7.916;2023-06-26T11:24:31;4.20;;;3.80;;
10154;SDS011;5118;48.570;7.916;2023-06-26T11:27:01;3.35;;;3.13;;
10154;SDS011;5118;48.570;7.916;2023-06-26T11:29:30;3.55;;;3.25;;
10154;SDS011;5118;48.570;7.916;2023-06-26T11:32:02;4.00;;;3.60;;
10154;SDS011;5118;48.570;7.916;2023-06-26T11:34:33;4.63;;;3.60;;
10154;SDS011;5118;48.570;7.916;2023-06-26T11:37:04;3.65;;;3.33;;
10154;SDS011;5118;48.570;7.916;2023-06-26T11:39:33;6.10;;;3.22;;
10154;SDS011;5118;48.570;7.916;2023-06-26T11:42:04;3.63;;;3.33;;
10154;SDS011;5118;48.570;7.916;2023-06-26T11:44:33;3.55;;;3.20;;
10154;SDS011;5118;48.570;7.916;2023-06-26T11:47:13;3.83;;;3.53;;
10154;SDS011;5118;48.570;7.916;2023-06-26T11:49:42;4.32;;;3.40;;
10154;SDS011;5118;48.570;7.916;2023-06-26T11:52:11;3.40;;;3.05;;
10154;SDS011;5118;48.570;7.916;2023-06-26T11:54:40;3.17;;;2.97;;
10154;SDS011;5118;48.570;7.916;2023-06-26T11:57:13;3.75;;;3.10;;
10154;SDS011;5118;48.570;7.916;2023-06-26T11:59:42;4.95;;;3.10;;
10154;SDS011;5118;48.570;7.916;2023-06-26T12:02:11;3.63;;;3.20;;
10154;SDS011;5118;48.570;7.916;2023-06-26T12:04:43;3.50;;;3.20;;
10154;SDS011;5118;48.570;7.916;2023-06-26T12:07:12;3.40;;;3.10;;
10154;SDS011;5118;48.570;7.916;2023-06-26T12:09:41;3.80;;;3.00;;
10154;SDS011;5118;48.570;7.916;2023-06-26T12:12:13;3.83;;;2.83;;
10154;SDS011;5118;48.570;7.916;2023-06-26T12:14:43;5.78;;;3.05;;
10154;SDS011;5118;48.570;7.916;2023-06-26T12:17:13;4.43;;;2.97;;
10154;SDS011;5118;48.570;7.916;2023-06-26T12:19:43;3.40;;;3.20;;
10154;SDS011;5118;48.570;7.916;2023-06-26T12:22:14;3.55;;;3.22;;
10154;SDS011;5118;48.570;7.916;2023-06-26T12:24:44;3.78;;;3.15;;
10154;SDS011;5118;48.570;7.916;2023-06-26T12:27:14;7.03;;;3.15;;
10154;SDS011;5118;48.570;7.916;2023-06-26T12:29:46;3.50;;;3.00;;
10154;SDS011;5118;48.570;7.916;2023-06-26T12:32:19;3.42;;;3.13;;
10154;SDS011;5118;48.570;7.916;2023-06-26T12:34:49;3.63;;;3.10;;
10154;SDS011;5118;48.570;7.916;2023-06-26T12:37:20;5.05;;;2.83;;
10154;SDS011;5118;48.570;7.916;2023-06-26T12:39:49;3.15;;;2.88;;
10154;SDS011;5118;48.570;7.916;2023-06-26T12:42:19;3.20;;;2.90;;
10154;SDS011;5118;48.570;7.916;2023-06-26T12:44:50;3.30;;;3.00;;
10154;SDS011;5118;48.570;7.916;2023-06-26T12:47:26;3.35;;;3.05;;
10154;SDS011;5118;48.570;7.916;2023-06-26T12:49:57;5.40;;;3.30;;
10154;SDS011;5118;48.570;7.916;2023-06-26T12:52:26;4.20;;;3.20;;
10154;SDS011;5118;48.570;7.916;2023-06-26T12:54:55;3.47;;;3.17;;
10154;SDS011;5118;48.570;7.916;2023-06-26T12:57:24;4.72;;;3.15;;
10154;SDS011;5118;48.570;7.916;2023-06-26T12:59:53;3.15;;;2.85;;
10154;SDS011;5118;48.570;7.916;2023-06-26T13:02:23;4.38;;;2.83;;
10154;SDS011;5118;48.570;7.916;2023-06-26T13:04:51;2.97;;;2.63;;
10154;SDS011;5118;48.570;7.916;2023-06-26T13:07:20;3.25;;;3.00;;
10154;SDS011;5118;48.570;7.916;2023-06-26T13:09:52;3.80;;;3.10;;
10154;SDS011;5118;48.570;7.916;2023-06-26T13:12:20;4.35;;;3.00;;
10154;SDS011;5118;48.570;7.916;2023-06-26T13:14:49;9.05;;;3.50;;
10154;SDS011;5118;48.570;7.916;2023-06-26T13:17:17;3.95;;;3.33;;
10154;SDS011;5118;48.570;7.916;2023-06-26T13:19:47;5.28;;;3.40;;
10154;SDS011;5118;48.570;7.916;2023-06-26T13:22:16;6.40;;;3.30;;
10154;SDS011;5118;48.570;7.916;2023-06-26T13:24:44;4.00;;;3.58;;
10154;SDS011;5118;48.570;7.916;2023-06-26T13:27:13;4.00;;;3.28;;
10154;SDS011;5118;48.570;7.916;2023-06-26T13:29:42;3.65;;;3.33;;
10154;SDS011;5118;48.570;7.916;2023-06-26T13:32:10;4.20;;;3.15;;
10154;SDS011;5118;48.570;7.916;2023-06-26T13:34:39;4.53;;;3.55;;
10154;SDS011;5118;48.570;7.916;2023-06-26T13:37:09;3.63;;;3.35;;
10154;SDS011;5118;48.570;7.916;2023-06-26T13:39:38;5.97;;;3.90;;
10154;SDS011;5118;48.570;7.916;2023-06-26T13:42:06;5.53;;;3.83;;
10154;SDS011;5118;48.570;7.916;2023-06-26T13:44:36;4.57;;;4.00;;
10154;SDS011;5118;48.570;7.916;2023-06-26T13:47:21;5.57;;;3.92;;
10154;SDS011;5118;48.570;7.916;2023-06-26T13:49:50;4.40;;;3.97;;
10154;SDS011;5118;48.570;7.916;2023-06-26T13:52:19;7.45;;;3.95;;
10154;SDS011;5118;48.570;7.916;2023-06-26T13:54:48;8.15;;;4.07;;
10154;SDS011;5118;48.570;7.916;2023-06-26T13:57:17;5.32;;;4.20;;
10154;SDS011;5118;48.570;7.916;2023-06-26T13:59:46;6.00;;;4.45;;
10154;SDS011;5118;48.570;7.916;2023-06-26T14:02:14;4.50;;;4.15;;
10154;SDS011;5118;48.570;7.916;2023-06-26T14:04:43;4.97;;;4.57;;
10154;SDS011;5118;48.570;7.916;2023-06-26T14:07:11;4.82;;;4.32;;
10154;SDS011;5118;48.570;7.916;2023-06-26T14:09:42;6.05;;;4.43;;
10154;SDS011;5118;48.570;7.916;2023-06-26T14:12:11;5.22;;;4.70;;
10154;SDS011;5118;48.570;7.916;2023-06-26T14:14:40;5.40;;;4.85;;
10154;SDS011;5118;48.570;7.916;2023-06-26T14:17:08;5.30;;;4.80;;
10154;SDS011;5118;48.570;7.916;2023-06-26T14:19:42;5.97;;;4.82;;
10154;SDS011;5118;48.570;7.916;2023-06-26T14:22:12;5.63;;;5.03;;
10154;SDS011;5118;48.570;7.916;2023-06-26T14:24:42;5.47;;;4.97;;
10154;SDS011;5118;48.570;7.916;2023-06-26T14:27:10;6.53;;;5.20;;
10154;SDS011;5118;48.570;7.916;2023-06-26T14:29:39;7.55;;;5.20;;
10154;SDS011;5118;48.570;7.916;2023-06-26T14:32:07;6.43;;;5.60;;
10154;SDS011;5118;48.570;7.916;2023-06-26T14:34:35;7.47;;;5.60;;
10154;SDS011;5118;48.570;7.916;2023-06-26T14:37:05;5.93;;;5.10;;
10154;SDS011;5118;48.570;7.916;2023-06-26T14:39:33;6.70;;;5.88;;
10154;SDS011;5118;48.570;7.916;2023-06-26T14:42:04;6.00;;;5.45;;
10154;SDS011;5118;48.570;7.916;2023-06-26T14:44:33;6.00;;;5.40;;
10154;SDS011;5118;48.570;7.916;2023-06-26T14:47:02;6.15;;;5.47;;
10154;SDS011;5118;48.570;7.916;2023-06-26T14:49:31;6.47;;;5.35;;
10154;SDS011;5118;48.570;7.916;2023-06-26T14:51:59;5.85;;;5.10;;
10154;SDS011;5118;48.570;7.916;2023-06-26T14:54:27;5.53;;;5.10;;
10154;SDS011;5118;48.570;7.916;2023-06-26T14:56:56;9.18;;;5.00;;
10154;SDS011;5118;48.570;7.916;2023-06-26T14:59:25;6.40;;;5.30;;
10154;SDS011;5118;48.570;7.916;2023-06-26T15:01:53;8.50;;;5.32;;
10154;SDS011;5118;48.570;7.916;2023-06-26T15:04:22;7.35;;;4.72;;
10154;SDS011;5118;48.570;7.916;2023-06-26T15:06:50;5.50;;;5.00;;
10154;SDS011;5118;48.570;7.916;2023-06-26T15:09:19;8.30;;;5.03;;
10154;SDS011;5118;48.570;7.916;2023-06-26T15:11:47;5.53;;;3.75;;
10154;SDS011;5118;48.570;7.916;2023-06-26T15:14:16;5.80;;;3.20;;
10154;SDS011;5118;48.570;7.916;2023-06-26T15:16:46;5.63;;;3.13;;
10154;SDS011;5118;48.570;7.916;2023-06-26T15:19:14;5.13;;;2.85;;